This is the latest recevied weather packets stored in our database for station/object W4MJZ-1. If no packets are shown the sender has not sent any weather packets the latest 1 day(s).
| Time | Temp. | Humidity | Pressure | Rain* | Wind** | Luminosity | Snow |
|---|---|---|---|---|---|---|---|
| 1778014940 | 24.44° C | 32% | 1018.5 hPa | 3.81 mm | 4.47 m/s, 230° | - | - |
| 1778014687 | 24.44° C | 31% | 1018.5 hPa | 3.81 mm | 4.02 m/s, 213° | - | - |
| 1778014639 | 24.44° C | 31% | 1018.5 hPa | 3.81 mm | 4.02 m/s, 213° | - | - |
| 1778014394 | 24.44° C | 31% | 1018.1 hPa | 3.81 mm | 4.47 m/s, 214° | - | - |
| 1778014339 | 24.44° C | 31% | 1018.1 hPa | 3.81 mm | 4.47 m/s, 214° | - | - |
| 1778014104 | 24.44° C | 31% | 1018.5 hPa | 3.81 mm | 4.92 m/s, 239° | - | - |
| 1778014040 | 24.44° C | 31% | 1018.5 hPa | 3.81 mm | 4.92 m/s, 239° | - | - |
| 1778013740 | 23.89° C | 31% | 1018.5 hPa | 3.81 mm | 4.47 m/s, 240° | - | - |
| 1778013497 | 23.33° C | 35% | 1018.5 hPa | 3.81 mm | 3.58 m/s, 238° | - | - |
| 1778013440 | 23.33° C | 35% | 1018.5 hPa | 3.81 mm | 3.58 m/s, 238° | - | - |
| 1778013196 | 23.89° C | 33% | 1018.5 hPa | 3.81 mm | 4.47 m/s, 244° | - | - |
| 1778013139 | 23.89° C | 33% | 1018.5 hPa | 3.81 mm | 4.47 m/s, 244° | - | - |
| 1778012974 | 23.89° C | 35% | 1018.5 hPa | 3.81 mm | 4.47 m/s, 246° | - | - |
| 1778012842 | 23.89° C | 35% | 1018.5 hPa | 3.81 mm | 4.47 m/s, 246° | - | - |
| 1778012623 | 23.89° C | 35% | 1018.5 hPa | 0 mm | 4.47 m/s, 236° | - | - |
| 1778012540 | 23.89° C | 35% | 1018.5 hPa | 0 mm | 4.47 m/s, 236° | - | - |
| 1778012400 | 23.33° C | 37% | 1018.5 hPa | 0 mm | 4.47 m/s, 235° | - | - |
| 1778012240 | 23.33° C | 37% | 1018.5 hPa | 0 mm | 4.47 m/s, 235° | - | - |
| 1778012000 | 23.33° C | 37% | 1018.5 hPa | 0 mm | 4.47 m/s, 236° | - | - |
| 1778011939 | 23.33° C | 37% | 1018.5 hPa | 0 mm | 4.47 m/s, 236° | - | - |
| 1778011747 | 23.33° C | 35% | 1018.8 hPa | 0 mm | 3.58 m/s, 234° | - | - |
| 1778011639 | 23.33° C | 35% | 1018.8 hPa | 0 mm | 3.58 m/s, 234° | - | - |
| 1778011464 | 23.89° C | 37% | 1019.2 hPa | 0 mm | 2.68 m/s, 238° | - | - |
| 1778011339 | 23.89° C | 37% | 1019.2 hPa | 0 mm | 2.68 m/s, 238° | - | - |
| 1778011173 | 23.89° C | 38% | 1018.8 hPa | 0 mm | 3.13 m/s, 221° | - | - |
* Rain latest hour (hover to see other rain measurements)
** Current wind speed in m/s (hover to see current wind gust speed)